Time;durP1;ratioP1;P1;durP2;ratioP2;P2;SDS_P1;SDS_P2;PMS_P1;PMS_P2;Temp;Humidity;BMP_temperature;BMP_pressure;BME280_temperature;BME280_humidity;BME280_pressure;Samples;Min_cycle;Max_cycle;Signal;HPM_P1;HPM_P2
2023/03/20 00:00:12;;;;;;;12.40;9.77;;;8.70;99.90;;;;;;479098;248;27883;-79
2023/03/20 00:02:13;;;;;;;11.53;9.30;;;8.80;99.90;;;;;;479078;248;28386;-80
2023/03/20 00:04:15;;;;;;;11.70;9.43;;;8.70;99.90;;;;;;479114;248;28511;-79
2023/03/20 00:06:19;;;;;;;11.33;8.70;;;8.70;99.90;;;;;;479094;248;28613;-79
2023/03/20 00:08:20;;;;;;;10.60;8.20;;;8.70;99.90;;;;;;479114;248;27920;-78
2023/03/20 00:10:21;;;;;;;11.30;9.00;;;8.70;99.90;;;;;;479091;248;28583;-80
2023/03/20 00:12:23;;;;;;;10.07;8.27;;;8.80;99.90;;;;;;479040;248;28220;-79
2023/03/20 00:14:25;;;;;;;12.13;8.97;;;8.80;99.90;;;;;;479078;248;28324;-79
2023/03/20 00:16:25;;;;;;;11.77;9.07;;;8.80;99.90;;;;;;479007;248;27927;-80
2023/03/20 00:18:27;;;;;;;13.83;9.83;;;8.80;99.90;;;;;;479035;248;27904;-80
2023/03/20 00:20:28;;;;;;;11.70;9.30;;;8.70;99.90;;;;;;479027;248;27930;-80
2023/03/20 00:22:31;;;;;;;11.07;8.80;;;8.70;99.90;;;;;;478998;248;27509;-79
2023/03/20 00:24:30;;;;;;;10.27;8.73;;;8.80;99.90;;;;;;478982;248;27912;-80
2023/03/20 00:26:31;;;;;;;10.27;8.97;;;8.80;99.90;;;;;;479096;248;27754;-80
2023/03/20 00:28:33;;;;;;;16.70;10.30;;;8.80;99.90;;;;;;479088;248;27801;-80
2023/03/20 00:30:34;;;;;;;12.33;8.30;;;8.80;99.90;;;;;;479080;248;28341;-78
2023/03/20 00:32:35;;;;;;;13.33;10.00;;;8.80;99.90;;;;;;479095;248;27910;-80
2023/03/20 00:34:36;;;;;;;15.93;10.00;;;8.80;99.90;;;;;;479108;248;28041;-80
2023/03/20 00:36:38;;;;;;;10.87;8.90;;;8.80;99.90;;;;;;479027;248;28365;-79
2023/03/20 00:38:39;;;;;;;14.70;10.40;;;8.80;99.90;;;;;;479089;248;28458;-80
2023/03/20 00:40:40;;;;;;;18.20;12.00;;;8.80;99.90;;;;;;479044;248;27864;-80
2023/03/20 00:42:41;;;;;;;19.00;13.00;;;8.80;99.90;;;;;;479102;248;27983;-79
2023/03/20 00:44:43;;;;;;;14.73;11.70;;;8.70;99.90;;;;;;478994;248;28041;-79
2023/03/20 00:46:44;;;;;;;15.40;10.80;;;8.80;99.90;;;;;;479006;248;27748;-79
2023/03/20 00:48:46;;;;;;;14.30;10.73;;;8.80;99.90;;;;;;479084;248;27915;-79
2023/03/20 00:50:48;;;;;;;16.30;12.33;;;8.80;99.90;;;;;;479088;248;28033;-79
2023/03/20 00:52:48;;;;;;;15.77;11.50;;;8.80;99.90;;;;;;479411;248;28259;-79
2023/03/20 00:54:49;;;;;;;13.77;11.10;;;8.80;99.90;;;;;;479430;248;28403;-79
2023/03/20 00:56:50;;;;;;;15.97;11.80;;;8.80;99.90;;;;;;479375;248;28519;-79
2023/03/20 00:58:52;;;;;;;16.23;12.30;;;8.80;99.90;;;;;;479318;248;27539;-79
2023/03/20 01:00:53;;;;;;;19.30;13.80;;;8.80;99.90;;;;;;479206;248;27891;-79
2023/03/20 01:02:54;;;;;;;17.60;12.40;;;8.80;99.90;;;;;;479256;248;27976;-80
2023/03/20 01:04:55;;;;;;;18.40;12.07;;;8.70;99.90;;;;;;479289;248;27956;-79
2023/03/20 01:06:57;;;;;;;15.53;11.33;;;8.70;99.90;;;;;;479218;248;27978;-79
2023/03/20 01:08:58;;;;;;;16.50;12.57;;;8.80;99.90;;;;;;479257;248;27769;-79
2023/03/20 01:10:59;;;;;;;16.17;11.77;;;8.80;99.90;;;;;;479221;248;28386;-79
2023/03/20 01:13:00;;;;;;;17.73;12.50;;;8.80;99.90;;;;;;479176;247;28446;-79
2023/03/20 01:15:02;;;;;;;19.20;12.30;;;8.70;99.90;;;;;;479237;248;28644;-79
2023/03/20 01:17:03;;;;;;;17.07;11.93;;;8.70;99.90;;;;;;479252;248;27876;-79
2023/03/20 01:19:04;;;;;;;17.40;12.20;;;8.70;99.90;;;;;;479278;248;27725;-79
2023/03/20 01:21:05;;;;;;;15.90;11.40;;;8.70;99.90;;;;;;479274;248;27887;-79
2023/03/20 01:23:07;;;;;;;16.47;11.50;;;8.70;99.90;;;;;;479189;248;27869;-80
2023/03/20 01:25:08;;;;;;;17.37;12.53;;;8.70;99.90;;;;;;479250;248;28013;-80
2023/03/20 01:27:09;;;;;;;18.00;11.80;;;8.80;99.90;;;;;;479221;248;27995;-80
2023/03/20 01:29:11;;;;;;;14.83;11.40;;;8.70;99.90;;;;;;479267;248;28033;-79
2023/03/20 01:31:12;;;;;;;14.93;11.23;;;8.80;99.90;;;;;;471036;247;28568;-79
2023/03/20 01:33:13;;;;;;;16.27;12.17;;;8.80;99.90;;;;;;467153;254;27936;-79
2023/03/20 01:35:14;;;;;;;18.20;11.83;;;8.70;99.90;;;;;;467243;254;27841;-80
2023/03/20 01:37:15;;;;;;;18.30;12.50;;;8.70;99.90;;;;;;467033;254;27961;-79
2023/03/20 01:39:17;;;;;;;18.43;12.43;;;8.70;99.90;;;;;;467230;254;27441;-79
2023/03/20 01:41:18;;;;;;;15.07;11.43;;;8.80;99.90;;;;;;467250;254;27587;-77
2023/03/20 01:43:19;;;;;;;18.20;12.43;;;8.80;99.90;;;;;;467207;254;27919;-80
2023/03/20 01:45:21;;;;;;;17.40;12.10;;;8.80;99.90;;;;;;467270;254;27967;-80
2023/03/20 01:47:22;;;;;;;18.47;12.90;;;8.70;99.90;;;;;;467245;254;27921;-80
2023/03/20 01:49:23;;;;;;;21.23;14.57;;;8.70;99.90;;;;;;467307;254;28348;-80
2023/03/20 01:51:24;;;;;;;21.57;14.00;;;8.70;99.90;;;;;;467157;254;28464;-79
2023/03/20 01:53:25;;;;;;;17.90;13.37;;;8.70;99.90;;;;;;467191;254;27903;-80
2023/03/20 01:55:27;;;;;;;20.37;12.93;;;8.70;99.90;;;;;;467042;254;27984;-80
2023/03/20 01:57:28;;;;;;;20.67;13.33;;;8.70;99.90;;;;;;467200;254;27910;-80
2023/03/20 01:59:29;;;;;;;22.47;14.33;;;8.70;99.90;;;;;;467173;254;27820;-79
2023/03/20 02:01:30;;;;;;;22.70;13.13;;;8.70;99.90;;;;;;467167;254;27590;-79
2023/03/20 02:03:32;;;;;;;17.77;11.67;;;8.70;99.90;;;;;;467176;254;27931;-79
2023/03/20 02:05:33;;;;;;;23.47;14.33;;;8.70;99.90;;;;;;467178;254;27594;-79
2023/03/20 02:07:34;;;;;;;23.67;13.53;;;8.70;99.90;;;;;;467235;254;28825;-79
2023/03/20 02:09:35;;;;;;;19.60;13.10;;;8.70;99.90;;;;;;467263;254;28485;-79
2023/03/20 02:11:37;;;;;;;24.10;14.50;;;8.70;99.90;;;;;;468134;253;27718;-80
2023/03/20 02:13:38;;;;;;;23.07;14.67;;;8.60;99.90;;;;;;468045;254;28060;-80
2023/03/20 02:15:39;;;;;;;19.93;13.00;;;8.60;99.90;;;;;;468128;254;27846;-80
2023/03/20 02:17:41;;;;;;;25.50;14.23;;;8.60;99.90;;;;;;468134;254;27792;-79
2023/03/20 02:19:42;;;;;;;23.23;14.57;;;8.60;99.90;;;;;;468135;254;28026;-80
2023/03/20 02:21:43;;;;;;;21.97;13.63;;;8.60;99.90;;;;;;468098;254;28190;-79
2023/03/20 02:23:44;;;;;;;23.53;14.47;;;8.60;99.90;;;;;;468113;253;27988;-79
2023/03/20 02:25:46;;;;;;;19.90;13.67;;;8.60;99.90;;;;;;468058;254;28575;-79
2023/03/20 02:27:47;;;;;;;18.73;12.30;;;8.60;99.90;;;;;;468085;254;28417;-79
2023/03/20 02:29:50;;;;;;;18.17;12.57;;;8.60;99.90;;;;;;468025;254;27987;-79
2023/03/20 02:31:49;;;;;;;21.10;13.23;;;8.60;99.90;;;;;;468018;254;28046;-80
2023/03/20 02:33:51;;;;;;;21.17;13.97;;;8.60;99.90;;;;;;467988;254;27896;-80
2023/03/20 02:35:52;;;;;;;19.53;12.93;;;8.60;99.90;;;;;;468000;254;27962;-78
2023/03/20 02:37:53;;;;;;;21.97;12.90;;;8.60;99.90;;;;;;468043;253;27925;-80
2023/03/20 02:39:54;;;;;;;18.37;12.10;;;8.60;99.90;;;;;;467997;254;27817;-80
2023/03/20 02:41:56;;;;;;;25.17;12.67;;;8.60;99.90;;;;;;468005;254;27975;-78
2023/03/20 02:43:57;;;;;;;19.73;12.33;;;8.60;99.90;;;;;;467998;254;27822;-80
2023/03/20 02:45:58;;;;;;;23.67;13.23;;;8.60;99.90;;;;;;468049;254;28373;-79
2023/03/20 02:47:59;;;;;;;22.90;13.40;;;8.50;99.90;;;;;;468009;254;29224;-79
2023/03/20 02:50:01;;;;;;;20.53;12.70;;;8.50;99.90;;;;;;468000;254;28492;-78
2023/03/20 02:52:02;;;;;;;19.27;13.43;;;8.60;99.90;;;;;;468046;254;27487;-79
2023/03/20 02:54:03;;;;;;;21.80;14.30;;;8.60;99.90;;;;;;467989;254;27817;-79
2023/03/20 02:56:05;;;;;;;21.00;13.23;;;8.50;99.90;;;;;;468008;254;28001;-80
2023/03/20 02:58:06;;;;;;;20.37;12.90;;;8.50;99.90;;;;;;467978;254;27488;-79
2023/03/20 03:00:08;;;;;;;23.43;15.07;;;8.50;99.90;;;;;;467980;254;27703;-79
2023/03/20 03:02:08;;;;;;;26.23;14.97;;;8.50;99.90;;;;;;467943;254;27968;-79
2023/03/20 03:04:10;;;;;;;20.10;12.70;;;8.50;99.90;;;;;;467986;254;28498;-79
2023/03/20 03:06:11;;;;;;;21.03;13.97;;;8.50;99.90;;;;;;468007;254;28399;-78
2023/03/20 03:08:12;;;;;;;29.20;15.50;;;8.50;99.90;;;;;;467998;254;28303;-79
2023/03/20 03:10:13;;;;;;;30.30;16.70;;;8.50;99.90;;;;;;467967;254;27821;-79
2023/03/20 03:12:15;;;;;;;27.13;14.60;;;8.50;99.90;;;;;;467989;254;28065;-80
2023/03/20 03:14:16;;;;;;;25.07;15.97;;;8.50;99.90;;;;;;468007;254;27459;-79
2023/03/20 03:16:17;;;;;;;25.13;14.60;;;8.60;99.90;;;;;;467980;253;27941;-80
2023/03/20 03:18:18;;;;;;;25.00;15.70;;;8.50;99.90;;;;;;468020;254;27938;-80
2023/03/20 03:20:20;;;;;;;20.17;13.37;;;8.50;99.90;;;;;;467933;254;28105;-80
2023/03/20 03:22:21;;;;;;;28.13;16.73;;;8.50;99.90;;;;;;467984;254;28462;-79
2023/03/20 03:24:22;;;;;;;27.00;16.20;;;8.60;99.90;;;;;;467977;254;28392;-79
2023/03/20 03:26:24;;;;;;;22.73;14.30;;;8.50;99.90;;;;;;467998;254;28457;-79
2023/03/20 03:28:25;;;;;;;33.10;17.00;;;8.60;99.90;;;;;;467981;254;27925;-79
2023/03/20 03:30:26;;;;;;;31.53;17.37;;;8.60;99.90;;;;;;467955;254;28031;-78
2023/03/20 03:32:27;;;;;;;30.07;17.00;;;8.60;99.90;;;;;;467999;254;27978;-79
2023/03/20 03:34:28;;;;;;;32.37;16.93;;;8.60;99.90;;;;;;467952;254;28400;-80
2023/03/20 03:36:30;;;;;;;33.40;16.87;;;8.60;99.90;;;;;;467963;254;28410;-79
2023/03/20 03:38:31;;;;;;;31.30;17.90;;;8.60;99.90;;;;;;467968;253;27962;-80
2023/03/20 03:40:32;;;;;;;30.70;17.37;;;8.60;99.90;;;;;;468003;253;27992;-79
2023/03/20 03:42:33;;;;;;;32.37;17.47;;;8.60;99.90;;;;;;468012;254;27858;-79
2023/03/20 03:44:35;;;;;;;30.20;17.90;;;8.60;99.90;;;;;;467960;254;27800;-80
2023/03/20 03:46:36;;;;;;;35.17;19.30;;;8.60;99.90;;;;;;467986;254;27977;-79
2023/03/20 03:48:37;;;;;;;43.33;22.37;;;8.50;99.90;;;;;;467999;254;27947;-80
2023/03/20 03:50:38;;;;;;;36.93;20.80;;;8.50;99.90;;;;;;467934;254;27955;-79
2023/03/20 03:52:40;;;;;;;35.70;19.60;;;8.50;99.90;;;;;;467996;254;28510;-77
2023/03/20 03:54:41;;;;;;;41.30;21.40;;;8.50;99.90;;;;;;467973;254;28262;-79
2023/03/20 03:56:42;;;;;;;37.13;20.90;;;8.50;99.90;;;;;;467968;254;28121;-80
2023/03/20 03:58:43;;;;;;;47.57;23.80;;;8.50;99.90;;;;;;468007;254;27660;-79
2023/03/20 04:00:46;;;;;;;39.07;20.50;;;8.50;99.90;;;;;;468019;254;27818;-79
2023/03/20 04:02:46;;;;;;;44.60;22.67;;;8.50;99.90;;;;;;468000;254;27998;-79
2023/03/20 04:04:47;;;;;;;44.70;22.77;;;8.50;99.90;;;;;;467992;254;28329;-80
2023/03/20 04:06:48;;;;;;;41.40;21.20;;;8.50;99.90;;;;;;468037;254;28566;-80
2023/03/20 04:08:50;;;;;;;43.60;22.40;;;8.50;99.90;;;;;;468022;254;28054;-79
2023/03/20 04:10:51;;;;;;;41.03;22.37;;;8.50;99.90;;;;;;468038;254;27542;-79
2023/03/20 04:12:52;;;;;;;43.50;22.60;;;8.50;99.90;;;;;;468041;254;27599;-79
2023/03/20 04:14:54;;;;;;;38.57;22.30;;;8.50;99.90;;;;;;467824;254;27918;-80
2023/03/20 04:16:55;;;;;;;52.83;24.13;;;8.50;99.90;;;;;;468028;254;27955;-79
2023/03/20 04:18:56;;;;;;;36.63;21.40;;;8.50;99.90;;;;;;468015;254;28395;-79
2023/03/20 04:20:57;;;;;;;37.30;21.20;;;8.50;99.90;;;;;;467913;254;28157;-80
2023/03/20 04:23:00;;;;;;;41.80;22.67;;;8.50;99.90;;;;;;467988;250;28628;-80
2023/03/20 04:25:01;;;;;;;42.30;21.20;;;8.50;99.90;;;;;;467927;254;28256;-80
2023/03/20 04:27:01;;;;;;;42.63;21.43;;;8.50;99.90;;;;;;467925;254;27831;-78
2023/03/20 04:29:03;;;;;;;36.03;20.40;;;8.50;99.90;;;;;;468348;254;27767;-79
2023/03/20 04:31:04;;;;;;;39.70;21.20;;;8.50;99.90;;;;;;468340;254;27934;-78
2023/03/20 04:33:06;;;;;;;49.40;24.87;;;8.50;99.90;;;;;;468422;254;27534;-79
2023/03/20 04:35:06;;;;;;;44.20;22.10;;;8.40;99.90;;;;;;468329;254;27811;-79
2023/03/20 04:37:08;;;;;;;44.43;22.70;;;8.40;99.90;;;;;;468228;254;27885;-79
2023/03/20 04:39:09;;;;;;;40.07;21.63;;;8.40;99.90;;;;;;468195;252;27674;-79
2023/03/20 04:41:10;;;;;;;46.10;22.40;;;8.40;99.90;;;;;;468180;254;28280;-80
2023/03/20 04:43:11;;;;;;;34.73;19.00;;;8.40;99.90;;;;;;468243;254;28078;-79
2023/03/20 04:45:12;;;;;;;38.57;21.70;;;8.40;99.90;;;;;;468232;254;27586;-79
2023/03/20 04:47:14;;;;;;;47.13;24.30;;;8.40;99.90;;;;;;468196;254;27906;-80
2023/03/20 04:49:15;;;;;;;40.87;22.47;;;8.40;99.90;;;;;;468178;254;27934;-79
2023/03/20 04:51:16;;;;;;;41.13;22.10;;;8.40;99.90;;;;;;468161;254;27948;-79
2023/03/20 04:53:17;;;;;;;38.63;21.10;;;8.40;99.90;;;;;;468243;254;27887;-79
2023/03/20 04:55:19;;;;;;;38.23;20.87;;;8.40;99.90;;;;;;468129;250;27935;-80
2023/03/20 04:57:20;;;;;;;38.33;20.20;;;8.40;99.90;;;;;;468159;254;27914;-79
2023/03/20 04:59:21;;;;;;;35.80;20.53;;;8.40;99.90;;;;;;468233;254;28282;-80
2023/03/20 05:01:23;;;;;;;60.10;22.53;;;8.40;99.90;;;;;;468208;254;28503;-80
2023/03/20 05:03:24;;;;;;;38.93;21.00;;;8.40;99.90;;;;;;467962;254;27843;-78
2023/03/20 05:05:25;;;;;;;34.27;19.27;;;8.40;99.90;;;;;;468161;254;27938;-80
2023/03/20 05:07:26;;;;;;;41.00;18.30;;;8.40;99.90;;;;;;468103;254;28048;-79
2023/03/20 05:09:27;;;;;;;38.63;20.10;;;8.40;99.90;;;;;;468114;254;27985;-79
2023/03/20 05:11:29;;;;;;;33.80;20.67;;;8.40;99.90;;;;;;468111;253;27443;-80
2023/03/20 05:13:30;;;;;;;36.37;20.73;;;8.40;99.90;;;;;;468117;254;28051;-80
2023/03/20 05:15:31;;;;;;;33.43;18.17;;;8.40;99.90;;;;;;468086;247;27776;-80
2023/03/20 05:17:32;;;;;;;39.43;19.00;;;8.40;99.90;;;;;;468093;254;28481;-80
2023/03/20 05:19:34;;;;;;;37.53;19.73;;;8.40;99.90;;;;;;468072;254;28536;-80
2023/03/20 05:21:35;;;;;;;36.13;19.40;;;8.40;99.90;;;;;;468078;254;27935;-80
2023/03/20 05:23:36;;;;;;;32.17;18.60;;;8.40;99.90;;;;;;468093;254;27970;-79
2023/03/20 05:25:37;;;;;;;40.17;20.67;;;8.40;99.90;;;;;;468095;254;27889;-80
2023/03/20 05:27:39;;;;;;;34.63;19.87;;;8.40;99.90;;;;;;468097;254;27680;-80
2023/03/20 05:29:40;;;;;;;36.97;21.07;;;8.40;99.90;;;;;;468159;251;28060;-80
2023/03/20 05:31:41;;;;;;;53.07;21.40;;;8.40;99.90;;;;;;468099;254;27567;-81
2023/03/20 05:33:42;;;;;;;55.20;20.70;;;8.40;99.90;;;;;;468128;254;28042;-79
2023/03/20 05:35:44;;;;;;;38.13;20.77;;;8.40;99.90;;;;;;468141;254;28478;-80
2023/03/20 05:37:45;;;;;;;37.80;21.33;;;8.40;99.90;;;;;;468120;254;28277;-79
2023/03/20 05:39:46;;;;;;;39.80;19.97;;;8.40;99.90;;;;;;468079;254;27514;-79
2023/03/20 05:41:47;;;;;;;31.67;16.73;;;8.40;99.90;;;;;;468051;254;27974;-79
2023/03/20 05:43:49;;;;;;;38.43;21.10;;;8.40;99.90;;;;;;468101;254;27543;-80
2023/03/20 05:45:50;;;;;;;49.57;20.63;;;8.40;99.90;;;;;;468094;254;27776;-79
2023/03/20 05:47:51;;;;;;;34.53;20.43;;;8.40;99.90;;;;;;468138;251;27954;-80
2023/03/20 05:49:53;;;;;;;38.67;19.73;;;8.40;99.90;;;;;;468164;254;27915;-77
2023/03/20 05:51:54;;;;;;;59.53;21.27;;;8.40;99.90;;;;;;468115;254;27786;-80
2023/03/20 05:53:55;;;;;;;36.90;20.20;;;8.40;99.90;;;;;;468121;254;28448;-80
2023/03/20 05:55:56;;;;;;;37.33;19.93;;;8.50;99.90;;;;;;468082;254;28560;-79
2023/03/20 05:57:58;;;;;;;43.30;21.07;;;8.40;99.90;;;;;;468028;254;28115;-79
2023/03/20 05:59:59;;;;;;;43.83;20.10;;;8.40;99.90;;;;;;468092;254;27851;-79
2023/03/20 06:02:00;;;;;;;30.97;19.20;;;8.40;99.90;;;;;;468004;248;27932;-77
2023/03/20 06:04:02;;;;;;;44.40;19.53;;;8.40;99.90;;;;;;467850;250;27814;-80
2023/03/20 06:06:03;;;;;;;40.43;20.07;;;8.40;99.90;;;;;;467888;254;28261;-79
2023/03/20 06:08:04;;;;;;;36.50;18.70;;;8.30;99.90;;;;;;467930;250;27916;-78
2023/03/20 06:10:05;;;;;;;89.07;22.90;;;8.30;99.90;;;;;;467893;253;28095;-79
2023/03/20 06:12:06;;;;;;;54.67;21.07;;;8.30;99.90;;;;;;468415;250;28637;-80
2023/03/20 06:14:08;;;;;;;35.27;20.27;;;8.30;99.90;;;;;;467864;254;28471;-78
2023/03/20 06:16:09;;;;;;;63.73;23.60;;;8.20;99.90;;;;;;468062;254;27904;-79
2023/03/20 06:18:10;;;;;;;41.03;21.97;;;8.20;99.90;;;;;;467739;254;27487;-79
2023/03/20 06:20:11;;;;;;;50.40;19.93;;;8.20;99.90;;;;;;474294;249;27924;-79
2023/03/20 06:22:13;;;;;;;126.73;24.80;;;8.20;99.90;;;;;;474557;250;28004;-79
2023/03/20 06:24:14;;;;;;;38.43;20.00;;;8.20;99.90;;;;;;474465;250;28152;-79
2023/03/20 06:26:15;;;;;;;41.63;20.63;;;8.20;99.90;;;;;;474485;249;28471;-80
2023/03/20 06:28:16;;;;;;;67.20;21.40;;;8.20;99.90;;;;;;474538;250;27787;-80
2023/03/20 06:30:18;;;;;;;43.30;20.13;;;8.30;99.90;;;;;;474543;250;28606;-79
2023/03/20 06:32:19;;;;;;;37.20;18.53;;;8.30;99.90;;;;;;474500;250;28322;-79
2023/03/20 06:34:20;;;;;;;27.47;16.80;;;8.30;99.90;;;;;;474345;250;27872;-79
2023/03/20 06:36:21;;;;;;;83.40;22.20;;;8.30;99.90;;;;;;474442;250;28149;-79
2023/03/20 06:38:23;;;;;;;34.83;18.73;;;8.30;99.90;;;;;;474340;250;28040;-79
2023/03/20 06:40:24;;;;;;;37.40;19.50;;;8.30;99.90;;;;;;474450;250;27919;-79
2023/03/20 06:42:25;;;;;;;65.97;21.13;;;8.30;99.90;;;;;;474462;250;27960;-80
2023/03/20 06:44:26;;;;;;;52.77;20.70;;;8.30;99.90;;;;;;474528;250;28078;-80
2023/03/20 06:46:28;;;;;;;37.90;19.97;;;8.30;99.90;;;;;;474535;248;28168;-80
2023/03/20 06:48:29;;;;;;;36.20;18.07;;;8.30;99.90;;;;;;474535;250;28580;-79
2023/03/20 06:50:31;;;;;;;40.73;18.67;;;8.30;99.90;;;;;;474524;249;28162;-79
2023/03/20 06:52:31;;;;;;;34.83;20.03;;;8.30;99.90;;;;;;474515;250;27980;-80
2023/03/20 06:54:33;;;;;;;40.63;19.50;;;8.30;99.90;;;;;;474430;250;28115;-79
2023/03/20 06:56:34;;;;;;;59.53;19.83;;;8.30;99.90;;;;;;474475;250;28000;-79
2023/03/20 06:58:35;;;;;;;27.80;17.57;;;8.30;99.90;;;;;;474511;248;28067;-79
2023/03/20 07:00:36;;;;;;;34.87;18.73;;;8.30;99.90;;;;;;474529;250;28149;-80
2023/03/20 07:02:38;;;;;;;31.37;18.90;;;8.30;99.90;;;;;;474544;250;28105;-80
2023/03/20 07:04:39;;;;;;;57.73;22.07;;;8.40;99.90;;;;;;474496;250;28143;-80
2023/03/20 07:06:40;;;;;;;32.07;18.50;;;8.30;99.90;;;;;;474430;250;28521;-79
2023/03/20 07:08:41;;;;;;;28.67;17.83;;;8.30;99.90;;;;;;474521;250;28368;-80
2023/03/20 07:10:43;;;;;;;43.60;22.43;;;8.40;99.90;;;;;;474571;250;27692;-79
2023/03/20 07:12:44;;;;;;;32.77;18.63;;;8.40;99.90;;;;;;474544;250;27868;-79
2023/03/20 07:14:45;;;;;;;30.67;17.57;;;8.30;99.90;;;;;;474530;250;27709;-80
2023/03/20 07:16:46;;;;;;;37.00;18.80;;;8.40;99.90;;;;;;474541;250;27906;-80
2023/03/20 07:18:48;;;;;;;37.07;19.63;;;8.40;99.90;;;;;;474543;250;28005;-79
2023/03/20 07:20:49;;;;;;;44.97;21.97;;;8.40;99.90;;;;;;474538;250;28025;-79
2023/03/20 07:22:50;;;;;;;45.27;22.83;;;8.30;99.90;;;;;;474520;250;27836;-80
2023/03/20 07:24:51;;;;;;;40.73;21.40;;;8.30;99.90;;;;;;474500;250;28687;-79
2023/03/20 07:26:53;;;;;;;40.57;21.47;;;8.30;99.90;;;;;;474533;250;28514;-78
2023/03/20 07:28:54;;;;;;;41.37;22.90;;;8.40;99.90;;;;;;474550;250;28544;-80
2023/03/20 07:30:55;;;;;;;37.67;19.90;;;8.30;99.90;;;;;;474514;250;27920;-80
2023/03/20 07:32:56;;;;;;;38.23;20.30;;;8.40;99.90;;;;;;474538;250;27918;-79
2023/03/20 07:34:58;;;;;;;32.50;17.40;;;8.40;99.90;;;;;;474549;250;27894;-79
2023/03/20 07:36:59;;;;;;;38.47;19.47;;;8.50;99.90;;;;;;474539;250;27912;-80
2023/03/20 07:39:00;;;;;;;35.37;20.13;;;8.60;99.90;;;;;;474534;250;28126;-80
2023/03/20 07:41:02;;;;;;;31.10;18.27;;;8.60;99.90;;;;;;474347;250;28061;-79
2023/03/20 07:43:03;;;;;;;26.40;14.00;;;8.60;99.90;;;;;;474513;250;29339;-80
2023/03/20 07:45:04;;;;;;;21.93;12.83;;;8.60;99.90;;;;;;474535;250;28107;-79
2023/03/20 07:47:06;;;;;;;14.97;9.50;;;8.60;99.90;;;;;;474486;250;28602;-79
2023/03/20 07:49:07;;;;;;;15.53;10.33;;;8.60;99.90;;;;;;474497;250;28064;-80
2023/03/20 07:51:10;;;;;;;21.80;10.10;;;8.60;99.90;;;;;;474427;250;28112;-79
2023/03/20 07:53:09;;;;;;;15.00;9.40;;;8.70;99.90;;;;;;474265;250;28030;-80
2023/03/20 07:55:10;;;;;;;15.30;10.23;;;8.60;99.90;;;;;;474505;250;28003;-80
2023/03/20 07:57:12;;;;;;;13.60;9.63;;;8.80;99.90;;;;;;474507;250;28045;-80
2023/03/20 07:59:13;;;;;;;17.87;10.10;;;8.70;99.90;;;;;;474537;250;27898;-80
2023/03/20 08:01:14;;;;;;;15.77;10.10;;;8.70;99.90;;;;;;474472;250;28070;-80
2023/03/20 08:03:16;;;;;;;20.27;11.20;;;8.60;99.90;;;;;;474514;250;28806;-79
2023/03/20 08:05:17;;;;;;;24.33;13.50;;;8.60;99.90;;;;;;474534;250;28526;-80
2023/03/20 08:07:18;;;;;;;24.53;13.90;;;8.60;99.90;;;;;;474517;250;28715;-79
2023/03/20 08:09:19;;;;;;;25.00;15.30;;;8.50;99.90;;;;;;474686;250;28088;-78
2023/03/20 08:11:20;;;;;;;24.40;14.23;;;8.50;99.90;;;;;;474714;250;27886;-78
2023/03/20 08:13:22;;;;;;;32.83;17.00;;;8.50;99.90;;;;;;474782;250;27883;-78
2023/03/20 08:15:23;;;;;;;27.93;15.87;;;8.50;99.90;;;;;;474846;250;27990;-78
2023/03/20 08:17:24;;;;;;;24.47;14.30;;;8.50;99.90;;;;;;474688;250;28011;-79
2023/03/20 08:19:25;;;;;;;26.70;15.60;;;8.60;99.90;;;;;;474676;249;28001;-79
2023/03/20 08:21:27;;;;;;;25.97;15.53;;;8.60;99.90;;;;;;474650;250;28534;-80
2023/03/20 08:23:28;;;;;;;21.40;13.90;;;8.60;99.90;;;;;;474603;250;28603;-80
2023/03/20 08:25:32;;;;;;;26.10;15.63;;;8.60;99.90;;;;;;474688;250;28436;-80
2023/03/20 08:27:30;;;;;;;32.70;18.17;;;8.70;99.90;;;;;;474611;249;27561;-79
2023/03/20 08:29:32;;;;;;;35.57;18.67;;;8.60;99.90;;;;;;474719;250;28001;-80
2023/03/20 08:31:33;;;;;;;28.27;16.60;;;8.60;99.90;;;;;;474639;250;27901;-79
2023/03/20 08:33:34;;;;;;;26.20;15.53;;;8.60;99.90;;;;;;474675;250;28378;-80
2023/03/20 08:35:36;;;;;;;34.17;17.10;;;8.60;99.90;;;;;;474686;250;28007;-80
2023/03/20 08:37:37;;;;;;;32.90;16.70;;;8.60;99.90;;;;;;474701;250;27760;-79
2023/03/20 08:39:38;;;;;;;32.27;17.90;;;8.60;99.90;;;;;;474654;250;28335;-79
2023/03/20 08:41:42;;;;;;;26.07;15.53;;;8.60;99.90;;;;;;474667;250;28478;-80
2023/03/20 08:43:40;;;;;;;25.23;16.17;;;8.70;99.90;;;;;;474607;250;28419;-80
2023/03/20 08:45:42;;;;;;;25.80;16.30;;;8.80;99.90;;;;;;474736;250;28123;-80
2023/03/20 08:47:43;;;;;;;31.53;17.37;;;8.80;99.90;;;;;;474729;250;27668;-79
2023/03/20 08:49:45;;;;;;;25.37;14.50;;;8.70;99.90;;;;;;474679;250;28193;-79
2023/03/20 08:51:45;;;;;;;33.00;17.70;;;8.70;99.90;;;;;;474686;250;28130;-79
2023/03/20 08:53:47;;;;;;;29.03;16.80;;;8.80;99.90;;;;;;474668;250;28055;-80
2023/03/20 08:55:53;;;;;;;29.47;16.70;;;8.80;99.90;;;;;;474642;250;28003;-79
2023/03/20 08:57:52;;;;;;;33.87;17.00;;;8.80;99.90;;;;;;474499;250;29277;-76
2023/03/20 08:59:52;;;;;;;23.80;14.20;;;8.70;99.90;;;;;;474660;250;28182;-79
2023/03/20 09:01:53;;;;;;;25.00;14.03;;;8.70;99.90;;;;;;474663;250;28487;-80
2023/03/20 09:03:55;;;;;;;22.97;13.50;;;8.80;99.90;;;;;;474744;250;27876;-80
2023/03/20 09:05:56;;;;;;;24.10;14.73;;;8.90;99.90;;;;;;474739;250;28092;-79
2023/03/20 09:07:57;;;;;;;21.93;12.90;;;8.90;99.90;;;;;;474719;250;28054;-80
2023/03/20 09:09:58;;;;;;;26.33;13.10;;;8.90;99.90;;;;;;474720;250;27972;-80
2023/03/20 09:11:59;;;;;;;18.17;12.17;;;9.00;99.90;;;;;;474735;250;27797;-79
2023/03/20 09:14:01;;;;;;;24.47;13.50;;;9.10;99.90;;;;;;474689;250;28182;-79
2023/03/20 09:16:02;;;;;;;25.53;13.20;;;9.20;99.90;;;;;;474686;250;28412;-80
2023/03/20 09:18:03;;;;;;;17.30;12.10;;;9.30;99.90;;;;;;474755;250;29374;-80
2023/03/20 09:20:05;;;;;;;20.77;12.70;;;9.50;99.90;;;;;;474695;250;28378;-80
2023/03/20 09:22:06;;;;;;;20.90;11.63;;;9.70;99.90;;;;;;474702;250;27939;-79
2023/03/20 09:24:07;;;;;;;15.40;10.37;;;9.90;99.90;;;;;;474741;250;28023;-80
2023/03/20 09:26:08;;;;;;;20.90;10.90;;;10.00;99.90;;;;;;474736;250;28267;-79
2023/03/20 09:28:10;;;;;;;15.93;10.33;;;10.20;99.90;;;;;;474725;250;28264;-80
2023/03/20 09:30:11;;;;;;;17.67;11.03;;;10.40;99.90;;;;;;474752;250;28118;-80
2023/03/20 09:32:12;;;;;;;16.83;10.07;;;10.60;99.90;;;;;;474713;250;28302;-80
2023/03/20 09:34:13;;;;;;;15.87;9.67;;;10.50;99.90;;;;;;474685;250;28259;-80
2023/03/20 09:36:14;;;;;;;15.60;10.10;;;10.40;99.90;;;;;;474597;250;28446;-79
2023/03/20 09:38:16;;;;;;;15.73;10.40;;;10.40;99.90;;;;;;474561;250;28263;-80
2023/03/20 09:40:17;;;;;;;13.97;9.77;;;10.20;99.90;;;;;;474660;250;28409;-79
2023/03/20 09:42:18;;;;;;;14.60;9.53;;;10.30;99.90;;;;;;474671;249;28355;-79
2023/03/20 09:44:19;;;;;;;11.57;7.43;;;10.30;99.90;;;;;;474609;250;28692;-79
2023/03/20 09:46:21;;;;;;;14.40;8.87;;;10.20;99.90;;;;;;474550;250;28765;-79
2023/03/20 09:48:22;;;;;;;12.63;8.60;;;10.20;99.90;;;;;;474550;250;29452;-79
2023/03/20 09:50:24;;;;;;;12.40;7.97;;;10.10;99.90;;;;;;474551;250;28253;-79
2023/03/20 09:52:24;;;;;;;11.00;8.50;;;10.20;99.90;;;;;;474473;250;28266;-79
2023/03/20 09:54:26;;;;;;;13.70;9.00;;;10.40;99.90;;;;;;474466;250;28457;-79
2023/03/20 09:56:27;;;;;;;11.43;8.03;;;10.40;99.90;;;;;;474573;250;28317;-79
2023/03/20 09:58:28;;;;;;;15.33;9.20;;;10.30;99.90;;;;;;474555;250;28755;-79
2023/03/20 10:00:29;;;;;;;11.40;7.90;;;10.30;99.90;;;;;;474562;250;28392;-80
2023/03/20 10:02:31;;;;;;;12.20;7.73;;;10.20;99.90;;;;;;474553;250;28754;-80
2023/03/20 10:04:32;;;;;;;12.40;8.60;;;10.30;99.90;;;;;;474569;250;28677;-80
2023/03/20 10:06:33;;;;;;;12.70;8.23;;;10.20;99.90;;;;;;474559;250;28914;-80
2023/03/20 10:08:35;;;;;;;10.63;8.27;;;10.40;99.90;;;;;;474547;250;28289;-79
2023/03/20 10:10:36;;;;;;;12.57;8.00;;;10.50;99.90;;;;;;474577;250;28306;-79
2023/03/20 10:12:37;;;;;;;11.23;8.50;;;10.60;99.90;;;;;;474550;250;28390;-79
2023/03/20 10:14:38;;;;;;;10.83;8.20;;;10.90;99.90;;;;;;474559;250;28295;-80
2023/03/20 10:16:42;;;;;;;9.97;7.50;;;11.10;99.90;;;;;;474536;250;28447;-79
2023/03/20 10:18:44;;;;;;;10.33;7.77;;;11.20;99.90;;;;;;474512;250;28944;-80
2023/03/20 10:20:45;;;;;;;12.70;7.57;;;11.10;99.90;;;;;;474557;250;28288;-79
2023/03/20 10:22:46;;;;;;;10.03;6.63;;;11.30;99.90;;;;;;474354;250;28880;-79